createdAt,value
2022-09-22T00:02:15.467Z,100915.44
2022-09-22T00:07:17.079Z,100908.91
2022-09-22T00:12:18.476Z,100909.53
2022-09-22T00:17:19.901Z,100903.91
2022-09-22T00:22:21.337Z,100901.28
2022-09-22T00:27:24.209Z,100895.22
2022-09-22T00:32:25.610Z,100902.59
2022-09-22T00:37:27.071Z,100903.25
2022-09-22T00:42:28.672Z,100908.41
2022-09-22T00:47:42.700Z,100906.25
2022-09-22T00:53:11.993Z,100897.16
2022-09-22T00:58:16.853Z,100890.47
2022-09-22T01:03:26.170Z,100893.25
2022-09-22T01:08:31.491Z,100898.03
2022-09-22T01:13:58.101Z,100898.22
2022-09-22T01:19:21.263Z,100904.91
2022-09-22T01:24:53.925Z,100894.31
2022-09-22T01:30:04.244Z,100899.19
2022-09-22T01:35:19.696Z,100908.66
2022-09-22T01:40:31.452Z,100897.78
2022-09-22T01:45:34.381Z,100900.78
2022-09-22T01:51:13.713Z,100891.28
2022-09-22T01:56:18.647Z,100890.19
2022-09-22T02:01:41.860Z,100891.78
2022-09-22T02:06:48.692Z,100885.97
2022-09-22T02:11:50.292Z,100878.44
2022-09-22T02:16:53.433Z,100874.88
2022-09-22T02:21:55.098Z,100869.28
2022-09-22T02:26:58.744Z,100874.31
2022-09-22T02:32:05.079Z,100881.03
2022-09-22T02:37:25.064Z,100889.81
2022-09-22T02:42:31.419Z,100875.75
2022-09-22T02:47:40.061Z,100875.75
2022-09-22T02:52:41.552Z,100868.06
2022-09-22T02:57:43.740Z,100869.44
2022-09-22T03:02:45.153Z,100868.31
2022-09-22T03:07:46.554Z,100878.34
2022-09-22T03:13:14.353Z,100876.66
2022-09-22T03:18:09.345Z,100881.19
2022-09-22T03:23:10.849Z,100884.59
2022-09-22T03:28:12.248Z,100893.56
2022-09-22T03:33:13.717Z,100884.59
2022-09-22T03:38:15.166Z,100894.81
2022-09-22T03:43:17.373Z,100895.13
2022-09-22T03:48:19.159Z,100895.84
2022-09-22T03:53:20.788Z,100883.25
2022-09-22T03:58:22.576Z,100885.00
2022-09-22T04:03:24.610Z,100882.78
2022-09-22T04:08:26.312Z,100896.06
2022-09-22T04:13:27.730Z,100900.09
2022-09-22T04:18:29.628Z,100896.44
2022-09-22T04:23:31.133Z,100896.81
2022-09-22T04:28:32.633Z,100895.28
2022-09-22T04:33:34.125Z,100908.19
2022-09-22T04:38:36.784Z,100914.50
2022-09-22T04:43:38.262Z,100911.06
2022-09-22T04:48:39.650Z,100916.66
2022-09-22T04:53:41.080Z,100921.00
2022-09-22T04:58:42.489Z,100919.22
2022-09-22T05:03:44.127Z,100915.69
2022-09-22T05:08:45.573Z,100920.91
2022-09-22T05:13:46.976Z,100923.97
2022-09-22T05:18:50.226Z,100921.88
2022-09-22T05:23:51.840Z,100916.66
2022-09-22T05:28:53.617Z,100930.53
2022-09-22T05:33:55.073Z,100928.59
2022-09-22T05:38:56.690Z,100932.63
2022-09-22T05:43:58.151Z,100947.94
2022-09-22T05:48:59.604Z,100946.69
2022-09-22T05:54:01.120Z,100942.81
2022-09-22T05:59:02.536Z,100942.84
2022-09-22T06:04:04.004Z,100947.66
2022-09-22T06:09:05.749Z,100949.00
2022-09-22T06:14:07.239Z,100956.03
2022-09-22T06:19:09.157Z,100958.25
2022-09-22T06:24:10.724Z,100954.00
2022-09-22T06:29:12.196Z,100958.88
2022-09-22T06:34:13.898Z,100967.00
2022-09-22T06:39:15.380Z,100967.72
2022-09-22T06:44:16.868Z,100969.34
2022-09-22T06:49:18.353Z,100978.69
2022-09-22T06:54:22.873Z,100976.19
2022-09-22T06:59:25.856Z,100980.78
2022-09-22T07:04:27.266Z,100989.72
2022-09-22T07:09:28.665Z,100985.66
2022-09-22T07:14:31.219Z,100987.22
2022-09-22T07:19:36.221Z,100986.94
2022-09-22T07:24:37.639Z,100985.97
2022-09-22T07:29:39.312Z,100986.69
2022-09-22T07:34:40.737Z,100989.81
2022-09-22T07:39:45.691Z,100991.53
2022-09-22T07:45:05.539Z,100991.41
2022-09-22T07:50:07.393Z,100988.31
2022-09-22T07:55:09.209Z,100983.09
2022-09-22T08:00:11.479Z,100985.94
2022-09-22T08:05:12.921Z,100980.81
2022-09-22T08:10:16.043Z,100982.06
2022-09-22T08:15:26.667Z,100976.41
2022-09-22T08:20:29.736Z,100986.22
2022-09-22T08:25:31.595Z,100981.13
2022-09-22T08:30:33.130Z,100984.59
2022-09-22T08:35:34.576Z,100980.66
2022-09-22T08:40:36.058Z,100987.16
2022-09-22T08:45:38.474Z,100989.09
2022-09-22T08:51:20.481Z,100988.50
2022-09-22T08:56:36.773Z,100986.31
2022-09-22T09:01:52.465Z,100975.81
2022-09-22T09:07:21.755Z,100983.47
2022-09-22T09:12:43.672Z,100973.78
2022-09-22T09:17:47.854Z,100969.47
2022-09-22T09:22:56.182Z,100961.06
2022-09-22T09:28:01.391Z,100966.13
2022-09-22T09:33:05.367Z,100970.59
2022-09-22T09:38:11.558Z,100962.22
2022-09-22T09:43:13.012Z,100969.88
2022-09-22T09:48:22.330Z,100970.78
2022-09-22T09:53:41.481Z,100969.50
2022-09-22T09:59:30.956Z,100966.22
2022-09-22T10:04:35.251Z,100965.75
2022-09-22T10:09:46.387Z,100969.34
2022-09-22T10:14:56.339Z,100952.53
2022-09-22T10:20:28.298Z,100964.56
2022-09-22T10:25:36.293Z,100948.72
2022-09-22T10:30:37.894Z,100953.63
2022-09-22T10:35:44.326Z,100948.53
2022-09-22T10:41:12.863Z,100950.94
2022-09-22T10:46:44.521Z,100955.53
2022-09-22T10:52:22.585Z,100943.34
2022-09-22T10:57:45.785Z,100947.09
2022-09-22T11:03:37.273Z,100945.97
2022-09-22T11:09:07.966Z,100933.75
2022-09-22T11:15:07.689Z,100939.38
2022-09-22T11:20:39.921Z,100929.00
2022-09-22T11:26:07.835Z,100909.50
2022-09-22T11:31:37.590Z,100915.53
2022-09-22T11:36:51.873Z,100909.47
2022-09-22T11:42:28.987Z,100909.22
2022-09-22T11:47:36.878Z,100895.22
2022-09-22T11:53:04.963Z,100885.03
2022-09-22T11:58:17.990Z,100888.88
2022-09-22T12:03:41.889Z,100899.66
2022-09-22T12:09:02.452Z,100894.69
2022-09-22T12:14:06.545Z,100887.97
2022-09-22T12:24:50.052Z,100888.38
2022-09-22T12:29:57.936Z,100874.50
2022-09-22T12:35:00.143Z,100864.69
2022-09-22T12:40:22.544Z,100861.88
2022-09-22T12:45:38.160Z,100856.69
2022-09-22T12:50:42.425Z,100854.75
2022-09-22T12:55:43.864Z,100866.78
2022-09-22T13:00:46.102Z,100867.13
2022-09-22T13:05:47.644Z,100875.97
2022-09-22T13:11:03.783Z,100868.69
2022-09-22T13:16:14.663Z,100868.03
2022-09-22T13:21:16.210Z,100861.25
2022-09-22T13:26:34.500Z,100848.81
2022-09-22T13:31:40.708Z,100845.53
2022-09-22T13:36:44.042Z,100853.03
2022-09-22T13:41:50.537Z,100846.00
2022-09-22T13:46:53.731Z,100835.56
2022-09-22T13:52:03.935Z,100835.13
2022-09-22T13:57:16.406Z,100840.78
2022-09-22T14:02:28.146Z,100844.22
2022-09-22T14:07:45.101Z,100839.03
2022-09-22T14:12:56.860Z,100833.53
2022-09-22T14:17:58.862Z,100824.38
2022-09-22T14:23:00.547Z,100825.25
2022-09-22T14:28:02.606Z,100815.06
2022-09-22T14:33:04.342Z,100823.53
2022-09-22T14:38:17.529Z,100818.75
2022-09-22T14:43:35.490Z,100806.28
2022-09-22T14:48:36.948Z,100817.19
2022-09-22T14:53:45.813Z,100818.03
2022-09-22T14:58:52.219Z,100814.88
2022-09-22T15:04:05.170Z,100815.44
2022-09-22T15:09:08.295Z,100799.97
2022-09-22T15:14:34.573Z,100802.69
2022-09-22T15:19:37.608Z,100807.66
2022-09-22T15:24:39.315Z,100811.34
2022-09-22T15:29:41.617Z,100814.88
2022-09-22T15:34:45.152Z,100809.28
2022-09-22T15:39:46.634Z,100807.38
2022-09-22T15:44:50.176Z,100807.97
2022-09-22T15:49:52.679Z,100815.16
2022-09-22T15:54:55.230Z,100809.72
2022-09-22T15:59:56.675Z,100813.31
2022-09-22T16:04:59.978Z,100799.47
2022-09-22T16:10:02.422Z,100808.28
2022-09-22T16:15:04.231Z,100808.94
2022-09-22T16:20:07.125Z,100804.38
2022-09-22T16:25:11.203Z,100813.00
2022-09-22T16:30:12.769Z,100802.50
2022-09-22T16:35:14.428Z,100804.44
2022-09-22T16:40:16.093Z,100802.91
2022-09-22T16:45:17.690Z,100805.25
2022-09-22T16:50:19.349Z,100808.28
2022-09-22T16:55:20.775Z,100810.28
2022-09-22T17:00:22.313Z,100811.66
2022-09-22T17:05:23.823Z,100810.13
2022-09-22T17:10:25.273Z,100806.19
2022-09-22T17:15:26.698Z,100816.56
2022-09-22T17:20:30.202Z,100817.06
2022-09-22T17:25:31.613Z,100827.16
2022-09-22T17:30:33.043Z,100822.97
2022-09-22T17:35:34.511Z,100821.47
2022-09-22T17:40:36.089Z,100812.47
2022-09-22T17:45:37.587Z,100822.78
2022-09-22T17:50:58.077Z,100818.94
2022-09-22T17:56:05.064Z,100823.22
2022-09-22T18:01:06.525Z,100831.31
2022-09-22T18:06:15.976Z,100834.84
2022-09-22T18:11:17.369Z,100838.97
2022-09-22T18:16:29.186Z,100835.97
2022-09-22T18:21:30.976Z,100844.03
2022-09-22T18:26:37.791Z,100845.69
2022-09-22T18:31:40.867Z,100849.06
2022-09-22T18:36:42.390Z,100842.31
2022-09-22T18:41:44.201Z,100840.72
2022-09-22T18:46:48.472Z,100844.63
2022-09-22T18:51:50.388Z,100845.25
2022-09-22T18:56:52.444Z,100839.22
2022-09-22T19:01:54.134Z,100847.63
2022-09-22T19:07:15.719Z,100845.28
2022-09-22T19:12:17.655Z,100837.25
2022-09-22T19:17:20.772Z,100848.50
2022-09-22T19:22:23.296Z,100858.03
2022-09-22T19:27:25.899Z,100844.97
2022-09-22T19:32:27.853Z,100856.84
2022-09-22T19:37:29.328Z,100850.47
2022-09-22T19:42:30.949Z,100862.03
2022-09-22T19:47:33.014Z,100853.47
2022-09-22T19:52:35.300Z,100854.75
2022-09-22T19:57:38.321Z,100848.16
2022-09-22T20:02:40.057Z,100863.78
2022-09-22T20:07:41.836Z,100853.41
2022-09-22T20:12:43.294Z,100852.09
2022-09-22T20:17:46.519Z,100850.59
2022-09-22T20:22:53.050Z,100855.34
2022-09-22T20:27:56.173Z,100852.06
2022-09-22T20:32:57.789Z,100845.38
2022-09-22T20:37:59.488Z,100847.03
2022-09-22T20:43:00.992Z,100846.84
2022-09-22T20:48:02.492Z,100845.28
2022-09-22T20:53:05.272Z,100848.09
2022-09-22T20:58:06.730Z,100846.47
2022-09-22T21:03:08.355Z,100847.66
2022-09-22T21:08:43.282Z,100834.66
2022-09-22T21:13:45.451Z,100839.00
2022-09-22T21:18:48.781Z,100844.59
2022-09-22T21:23:53.616Z,100843.63
2022-09-22T21:28:55.442Z,100843.31
2022-09-22T21:33:56.967Z,100844.97
2022-09-22T21:38:59.852Z,100843.78
2022-09-22T21:44:02.890Z,100838.94
2022-09-22T21:49:04.532Z,100841.66
2022-09-22T21:54:06.752Z,100838.38
2022-09-22T21:59:08.236Z,100842.25
2022-09-22T22:04:13.752Z,100835.34
2022-09-22T22:09:20.775Z,100833.06
2022-09-22T22:14:24.210Z,100826.59
2022-09-22T22:19:27.018Z,100839.00
2022-09-22T22:24:29.239Z,100828.22
2022-09-22T22:29:34.732Z,100828.63
2022-09-22T22:34:36.869Z,100837.31
2022-09-22T22:39:38.289Z,100818.91
2022-09-22T22:44:39.704Z,100817.47
2022-09-22T22:49:41.117Z,100821.34
2022-09-22T22:54:42.509Z,100817.88
2022-09-22T22:59:43.899Z,100813.25
2022-09-22T23:04:45.205Z,100808.84
2022-09-22T23:09:46.930Z,100807.88
2022-09-22T23:14:48.341Z,100817.00
2022-09-22T23:19:49.877Z,100812.13
2022-09-22T23:24:51.275Z,100805.38
2022-09-22T23:29:52.730Z,100804.03
2022-09-22T23:34:54.132Z,100799.00
2022-09-22T23:39:55.572Z,100793.22
2022-09-22T23:44:56.972Z,100790.72
2022-09-22T23:50:00.292Z,100789.47
2022-09-22T23:55:02.072Z,100791.72
